Bookmark and Share
Track history (hours):
 

Hindu

More information available from US FCC via Universal Licensing System and Coast Guard Vessel Documentation Center.

Last reported at 2013-Oct-29 20:15 UTC. Time now 2014-Apr-23 07:10 UTC.
Position N 25°39' W 080°03'.
Warning: this ship's position is months out of date.

Length 24 m.

Type: Sailing vessel. MMSI: 367554370.

NotesDate/timePositionNaut miles runAvg speedWind from/ knotsBaromVisibWave heightAir tempDewpointWater temp
2013-Oct-29 20:15N 25°39' W 080°03'5 6.6
2013-Oct-29 19:33N 25°43' W 080°05'7 6.8
2013-Oct-29 18:33N 25°50' W 080°05'8 7.4
2013-Oct-29 17:29N 25°58' W 080°05'7 7.1
2013-Oct-29 16:29N 26°05' W 080°05'2 2.2
2013-Oct-29 15:31N 26°06' W 080°07'0 0.3
2013-Oct-29 14:33N 26°06' W 080°07'5 5.0
2013-Oct-29 13:33N 26°10' W 080°04'7 7.1
2013-Oct-29 12:33N 26°17' W 080°02'  
2013-Oct-25 23:11N 34°39' W 076°41'4 6.0
2013-Oct-25 22:31N 34°43' W 076°40'1 0.6
2013-Oct-25 21:32N 34°44' W 076°40'0 0.0
2013-Oct-25 20:32N 34°44' W 076°40'0 0.0
2013-Oct-25 19:32N 34°44' W 076°40'0 0.0
2013-Oct-25 18:32N 34°44' W 076°40'0 0.0
2013-Oct-25 17:32N 34°44' W 076°40'0 0.0
2013-Oct-25 16:32N 34°44' W 076°40'0 0.0
2013-Oct-25 15:32N 34°44' W 076°40'0 0.0
2013-Oct-25 14:32N 34°44' W 076°40'0 0.0
2013-Oct-25 13:32N 34°44' W 076°40'0 0.0
2013-Oct-25 12:32N 34°44' W 076°40'0 0.0
2013-Oct-25 11:32N 34°44' W 076°40'0 0.0
2013-Oct-25 10:32N 34°44' W 076°40'0 0.0
2013-Oct-25 09:32N 34°44' W 076°40'0 0.0
2013-Oct-25 08:32N 34°44' W 076°40'0 0.0
2013-Oct-25 07:32N 34°44' W 076°40'0 0.0
2013-Oct-25 06:32N 34°44' W 076°40'0 0.0
2013-Oct-25 05:32N 34°44' W 076°40'0 0.0
2013-Oct-25 04:32N 34°44' W 076°40'0 0.0
2013-Oct-25 03:32N 34°44' W 076°40'0 0.0
2013-Oct-25 02:32N 34°44' W 076°40'0 0.0
2013-Oct-25 01:32N 34°44' W 076°40'0 0.0
2013-Oct-25 00:32N 34°44' W 076°40'0 0.0
2013-Oct-24 23:32N 34°44' W 076°40'0 0.0
2013-Oct-24 22:29N 34°44' W 076°40'0 0.0
2013-Oct-24 21:32N 34°44' W 076°40'0 0.0
2013-Oct-24 20:32N 34°44' W 076°40'0 0.0
2013-Oct-24 19:32N 34°44' W 076°40'0 0.0
2013-Oct-24 18:32N 34°44' W 076°40'0 0.0
2013-Oct-24 17:32N 34°44' W 076°40'0 0.0
2013-Oct-24 16:32N 34°44' W 076°40'0 0.0
2013-Oct-24 15:32N 34°44' W 076°40'0 0.0
2013-Oct-24 14:32N 34°44' W 076°40'0 0.0
2013-Oct-24 13:32N 34°44' W 076°40'0 0.0
2013-Oct-24 12:32N 34°44' W 076°40'0 0.0
2013-Oct-24 11:29N 34°44' W 076°40'0 0.0
2013-Oct-24 10:32N 34°44' W 076°40'0 0.0
2013-Oct-24 09:32N 34°44' W 076°40'0 0.0
2013-Oct-24 08:32N 34°44' W 076°40'0 0.0
2013-Oct-24 07:32N 34°44' W 076°40'0 0.0
2013-Oct-24 06:32N 34°44' W 076°40'0 0.0
2013-Oct-24 05:32N 34°44' W 076°40'0 0.0
2013-Oct-24 04:32N 34°44' W 076°40'0 0.0
2013-Oct-24 03:32N 34°44' W 076°40'0 0.0
2013-Oct-24 02:32N 34°44' W 076°40'0 0.0
2013-Oct-24 01:29N 34°44' W 076°40'0 0.0
2013-Oct-24 00:32N 34°44' W 076°40'0 0.0
2013-Oct-23 23:32N 34°44' W 076°40'0 0.0
2013-Oct-23 22:32N 34°44' W 076°40'0 0.0
2013-Oct-23 21:32N 34°44' W 076°40'0 0.0
2013-Oct-23 20:32N 34°44' W 076°40'0 0.0
2013-Oct-23 19:32N 34°44' W 076°40'0 0.0
2013-Oct-23 13:33N 34°43' W 076°40'  

Dump ship's entire track history

sailing weather and tide predictions

Hindu — WDG6190 — position and weather